createdAt,value
2022-08-30T00:01:30.297Z,4.37
2022-08-30T00:05:33.417Z,4.20
2022-08-30T00:09:35.553Z,4.00
2022-08-30T00:13:39.176Z,4.60
2022-08-30T00:17:42.236Z,4.47
2022-08-30T00:21:44.222Z,4.40
2022-08-30T00:25:46.473Z,5.40
2022-08-30T00:29:48.422Z,5.10
2022-08-30T00:33:50.445Z,4.50
2022-08-30T00:37:52.590Z,4.83
2022-08-30T00:41:55.016Z,5.17
2022-08-30T00:45:58.263Z,4.30
2022-08-30T00:50:00.570Z,3.50
2022-08-30T00:54:04.211Z,3.47
2022-08-30T00:58:10.934Z,4.00
2022-08-30T01:02:13.547Z,3.17
2022-08-30T01:06:16.402Z,3.27
2022-08-30T01:10:19.036Z,5.10
2022-08-30T01:14:26.031Z,5.10
2022-08-30T01:18:29.148Z,4.77
2022-08-30T01:22:40.326Z,4.20
2022-08-30T01:26:43.455Z,4.67
2022-08-30T01:30:46.443Z,4.90
2022-08-30T01:34:49.027Z,4.93
2022-08-30T01:38:55.438Z,3.87
2022-08-30T01:42:57.392Z,4.43
2022-08-30T01:46:59.910Z,3.93
2022-08-30T01:51:02.460Z,3.20
2022-08-30T01:55:05.431Z,4.20
2022-08-30T01:59:07.624Z,5.07
2022-08-30T02:03:09.818Z,5.23
2022-08-30T02:07:11.846Z,4.57
2022-08-30T02:11:15.430Z,4.40
2022-08-30T02:15:18.337Z,4.10
2022-08-30T02:19:23.135Z,3.80
2022-08-30T02:23:28.317Z,4.47
2022-08-30T02:27:30.446Z,4.30
2022-08-30T02:31:32.943Z,4.50
2022-08-30T02:35:35.135Z,3.87
2022-08-30T02:39:37.391Z,5.20
2022-08-30T02:43:39.818Z,4.60
2022-08-30T02:47:46.779Z,4.37
2022-08-30T02:51:51.061Z,6.37
2022-08-30T02:55:53.135Z,5.50
2022-08-30T02:59:55.300Z,5.00
2022-08-30T03:03:57.500Z,5.90
2022-08-30T03:08:00.303Z,5.40
2022-08-30T03:12:02.888Z,4.97
2022-08-30T03:16:05.273Z,6.17
2022-08-30T03:20:09.184Z,5.23
2022-08-30T03:24:13.605Z,5.30
2022-08-30T03:28:16.117Z,6.17
2022-08-30T03:32:19.053Z,6.13
2022-08-30T03:36:21.714Z,6.13
2022-08-30T03:40:24.431Z,4.63
2022-08-30T03:44:28.687Z,5.60
2022-08-30T03:48:31.971Z,5.27
2022-08-30T03:52:34.081Z,5.97
2022-08-30T03:56:37.230Z,5.47
2022-08-30T04:00:39.437Z,4.63
2022-08-30T04:04:42.166Z,4.67
2022-08-30T04:08:46.117Z,4.57
2022-08-30T04:12:51.772Z,3.37
2022-08-30T04:16:54.182Z,4.57
2022-08-30T04:20:56.446Z,4.37
2022-08-30T04:24:58.412Z,4.77
2022-08-30T04:29:00.361Z,4.77
2022-08-30T04:33:02.693Z,4.43
2022-08-30T04:37:04.765Z,3.77
2022-08-30T04:41:19.240Z,3.63
2022-08-30T04:45:22.682Z,3.23
2022-08-30T04:49:25.568Z,3.40
2022-08-30T04:53:28.618Z,3.30
2022-08-30T04:57:30.972Z,2.77
2022-08-30T05:01:44.535Z,2.77
2022-08-30T05:05:51.904Z,2.80
2022-08-30T05:09:54.288Z,3.23
2022-08-30T05:13:58.659Z,3.10
2022-08-30T05:18:01.009Z,2.17
2022-08-30T05:22:04.018Z,2.60
2022-08-30T05:26:08.725Z,2.58
2022-08-30T05:30:14.833Z,2.45
2022-08-30T05:34:17.859Z,3.13
2022-08-30T05:38:20.041Z,3.10
2022-08-30T05:42:24.715Z,3.10
2022-08-30T05:46:31.569Z,2.92
2022-08-30T05:50:35.873Z,3.75
2022-08-30T05:54:40.325Z,3.30
2022-08-30T05:58:43.729Z,3.33
2022-08-30T06:02:46.084Z,3.17
2022-08-30T06:06:48.194Z,3.20
2022-08-30T06:10:50.502Z,3.67
2022-08-30T06:14:53.530Z,3.07
2022-08-30T06:18:57.989Z,3.60
2022-08-30T06:23:00.386Z,3.40
2022-08-30T06:27:03.009Z,3.53
2022-08-30T06:31:10.674Z,3.17
2022-08-30T06:35:12.730Z,3.40
2022-08-30T06:39:15.497Z,3.27
2022-08-30T06:43:17.760Z,3.97
2022-08-30T06:47:20.037Z,3.27
2022-08-30T06:51:25.244Z,3.33
2022-08-30T06:55:28.581Z,3.03
2022-08-30T06:59:32.536Z,3.23
2022-08-30T07:03:37.832Z,3.63
2022-08-30T07:07:40.189Z,3.53
2022-08-30T07:11:42.643Z,3.23
2022-08-30T07:15:45.529Z,3.43
2022-08-30T07:19:49.726Z,4.10
2022-08-30T07:23:53.710Z,3.53
2022-08-30T07:27:57.199Z,3.30
2022-08-30T07:32:00.188Z,3.03
2022-08-30T07:36:04.958Z,3.40
2022-08-30T07:40:07.789Z,3.10
2022-08-30T07:44:10.461Z,3.23
2022-08-30T07:48:13.343Z,2.83
2022-08-30T07:52:15.410Z,4.10
2022-08-30T07:56:17.654Z,3.47
2022-08-30T08:00:19.933Z,3.37
2022-08-30T08:04:22.171Z,3.57
2022-08-30T08:08:24.618Z,3.97
2022-08-30T08:12:26.982Z,3.90
2022-08-30T08:16:32.355Z,3.47
2022-08-30T08:20:35.878Z,4.63
2022-08-30T08:24:38.111Z,4.40
2022-08-30T08:28:40.392Z,4.20
2022-08-30T08:32:42.643Z,4.40
2022-08-30T08:36:45.712Z,3.70
2022-08-30T08:41:10.562Z,4.73
2022-08-30T08:45:19.443Z,5.07
2022-08-30T08:49:21.775Z,4.67
2022-08-30T08:53:46.277Z,4.47
2022-08-30T08:57:52.607Z,3.33
2022-08-30T09:02:00.961Z,3.40
2022-08-30T09:06:28.670Z,2.77
2022-08-30T09:10:49.474Z,2.67
2022-08-30T09:14:59.341Z,2.87
2022-08-30T09:19:02.664Z,2.93
2022-08-30T09:23:14.011Z,2.87
2022-08-30T09:32:10.148Z,2.37
2022-08-30T09:36:26.550Z,2.77
2022-08-30T09:40:53.826Z,2.30
2022-08-30T09:45:10.754Z,2.70
2022-08-30T09:49:46.333Z,2.67
2022-08-30T09:54:17.520Z,2.67
2022-08-30T09:58:50.444Z,3.00
2022-08-30T10:02:58.426Z,3.37
2022-08-30T10:07:15.010Z,2.70
2022-08-30T10:11:48.698Z,2.87
2022-08-30T10:16:09.116Z,3.53
2022-08-30T10:20:32.833Z,2.87
2022-08-30T10:24:43.969Z,3.03
2022-08-30T10:28:55.922Z,2.93
2022-08-30T10:33:17.412Z,3.00
2022-08-30T10:37:32.761Z,2.37
2022-08-30T10:41:39.804Z,3.23
2022-08-30T10:45:47.305Z,3.60
2022-08-30T10:49:53.645Z,3.17
2022-08-30T10:54:04.754Z,3.70
2022-08-30T10:58:07.563Z,3.17
2022-08-30T11:02:09.458Z,3.13
2022-08-30T11:06:26.929Z,2.90
2022-08-30T11:10:57.015Z,3.50
2022-08-30T11:15:01.646Z,3.27
2022-08-30T11:19:13.901Z,3.07
2022-08-30T11:23:19.189Z,2.77
2022-08-30T11:27:43.492Z,3.10
2022-08-30T11:31:46.779Z,2.90
2022-08-30T11:35:52.715Z,3.37
2022-08-30T11:40:01.915Z,3.07
2022-08-30T11:44:21.846Z,2.50
2022-08-30T11:48:51.353Z,2.60
2022-08-30T11:53:21.751Z,2.70
2022-08-30T11:57:45.856Z,2.87
2022-08-30T12:01:52.001Z,2.93
2022-08-30T12:05:59.732Z,2.88
2022-08-30T12:10:04.116Z,3.33
2022-08-30T12:14:09.379Z,3.27
2022-08-30T12:18:30.583Z,2.67
2022-08-30T12:22:37.979Z,2.80
2022-08-30T12:26:44.063Z,2.55
2022-08-30T12:30:46.936Z,2.97
2022-08-30T12:34:54.777Z,2.90
2022-08-30T12:39:10.661Z,3.23
2022-08-30T12:43:40.424Z,3.20
2022-08-30T12:47:50.650Z,3.23
2022-08-30T12:51:53.782Z,2.73
2022-08-30T12:55:59.512Z,2.83
2022-08-30T13:00:05.984Z,3.17
2022-08-30T13:04:14.598Z,2.83
2022-08-30T13:08:22.511Z,2.77
2022-08-30T13:12:27.852Z,3.13
2022-08-30T13:16:40.302Z,2.50
2022-08-30T13:20:48.155Z,2.90
2022-08-30T13:24:52.265Z,2.90
2022-08-30T13:29:00.766Z,2.93
2022-08-30T13:33:03.035Z,3.10
2022-08-30T13:37:05.437Z,2.50
2022-08-30T13:41:08.066Z,2.33
2022-08-30T13:49:43.424Z,3.28
2022-08-30T13:53:54.086Z,2.43
2022-08-30T13:57:57.610Z,2.60
2022-08-30T14:02:11.444Z,2.07
2022-08-30T14:06:32.131Z,2.90
2022-08-30T14:10:46.624Z,2.20
2022-08-30T14:14:49.894Z,2.67
2022-08-30T14:18:56.181Z,2.73
2022-08-30T14:22:58.721Z,2.83
2022-08-30T14:27:01.184Z,2.60
2022-08-30T14:31:03.439Z,2.27
2022-08-30T14:35:06.118Z,2.50
2022-08-30T14:39:11.914Z,3.07
2022-08-30T14:43:14.594Z,2.23
2022-08-30T14:47:16.881Z,2.40
2022-08-30T14:51:21.458Z,2.13
2022-08-30T14:55:23.646Z,2.50
2022-08-30T14:59:26.889Z,2.10
2022-08-30T15:03:29.527Z,2.23
2022-08-30T15:07:31.995Z,2.60
2022-08-30T15:11:34.955Z,2.37
2022-08-30T15:15:37.142Z,2.50
2022-08-30T15:19:39.750Z,2.30
2022-08-30T15:23:42.001Z,2.17
2022-08-30T15:27:44.085Z,2.00
2022-08-30T15:31:49.901Z,2.27
2022-08-30T15:35:52.709Z,2.20
2022-08-30T15:39:55.633Z,2.43
2022-08-30T15:43:58.984Z,2.30
2022-08-30T15:48:01.688Z,2.53
2022-08-30T15:52:05.794Z,2.33
2022-08-30T15:56:10.998Z,2.30
2022-08-30T16:00:14.209Z,2.60
2022-08-30T16:04:18.634Z,2.27
2022-08-30T16:08:20.950Z,2.03
2022-08-30T16:12:23.391Z,2.20
2022-08-30T16:16:26.312Z,2.27
2022-08-30T16:20:28.497Z,2.70
2022-08-30T16:24:30.895Z,2.67
2022-08-30T16:28:33.366Z,1.90
2022-08-30T16:32:35.512Z,2.20
2022-08-30T16:36:39.714Z,2.27
2022-08-30T16:40:41.818Z,1.97
2022-08-30T16:44:46.316Z,2.33
2022-08-30T16:48:49.062Z,2.40
2022-08-30T16:52:51.511Z,2.20
2022-08-30T16:56:55.814Z,2.33
2022-08-30T17:00:59.854Z,2.70
2022-08-30T17:05:05.920Z,2.07
2022-08-30T17:09:09.878Z,2.10
2022-08-30T17:13:12.138Z,2.47
2022-08-30T17:17:14.640Z,2.23
2022-08-30T17:21:18.978Z,2.70
2022-08-30T17:25:21.366Z,2.40
2022-08-30T17:29:24.348Z,1.87
2022-08-30T17:33:27.278Z,2.20
2022-08-30T17:37:29.619Z,3.03
2022-08-30T17:41:32.013Z,2.60
2022-08-30T17:45:34.181Z,2.23
2022-08-30T17:49:38.833Z,2.13
2022-08-30T17:53:41.323Z,2.37
2022-08-30T17:57:43.598Z,3.23
2022-08-30T18:01:45.914Z,2.20
2022-08-30T18:05:48.878Z,3.10
2022-08-30T18:09:53.335Z,2.70
2022-08-30T18:13:56.057Z,2.60
2022-08-30T18:17:58.724Z,3.30
2022-08-30T18:22:03.351Z,3.60
2022-08-30T18:26:05.730Z,3.70
2022-08-30T18:30:11.680Z,3.23
2022-08-30T18:34:13.946Z,3.80
2022-08-30T18:38:17.552Z,3.30
2022-08-30T18:42:20.478Z,3.17
2022-08-30T18:46:23.072Z,2.73
2022-08-30T18:50:29.313Z,2.97
2022-08-30T18:54:31.297Z,2.90
2022-08-30T18:58:34.171Z,3.27
2022-08-30T19:02:36.790Z,2.70
2022-08-30T19:06:43.162Z,3.40
2022-08-30T19:10:45.246Z,3.83
2022-08-30T19:14:47.488Z,3.07
2022-08-30T19:18:51.108Z,3.70
2022-08-30T19:23:09.499Z,3.20
2022-08-30T19:27:37.299Z,3.00
2022-08-30T19:31:44.200Z,3.03
2022-08-30T19:35:50.974Z,2.53
2022-08-30T19:39:53.609Z,4.00
2022-08-30T19:43:56.246Z,4.40
2022-08-30T19:47:58.713Z,3.77
2022-08-30T19:52:01.000Z,3.13
2022-08-30T19:56:03.493Z,3.50
2022-08-30T20:00:11.101Z,3.60
2022-08-30T20:04:14.588Z,3.57
2022-08-30T20:08:16.831Z,2.90
2022-08-30T20:12:20.120Z,3.97
2022-08-30T20:16:28.378Z,3.37
2022-08-30T20:20:39.781Z,3.20
2022-08-30T20:24:43.907Z,4.03
2022-08-30T20:28:46.372Z,3.87
2022-08-30T20:32:48.727Z,3.63
2022-08-30T20:36:52.174Z,3.43
2022-08-30T20:40:59.086Z,3.70
2022-08-30T20:45:01.362Z,3.70
2022-08-30T20:49:04.189Z,3.47
2022-08-30T20:53:06.860Z,3.90
2022-08-30T20:57:09.100Z,3.63
2022-08-30T21:01:12.225Z,3.80
2022-08-30T21:05:15.672Z,3.33
2022-08-30T21:09:17.706Z,3.37
2022-08-30T21:13:21.909Z,3.13
2022-08-30T21:17:24.307Z,2.53
2022-08-30T21:21:27.989Z,3.33
2022-08-30T21:25:33.302Z,3.07
2022-08-30T21:29:35.449Z,3.77
2022-08-30T21:33:39.114Z,3.43
2022-08-30T21:37:41.298Z,3.30
2022-08-30T21:41:43.605Z,3.00
2022-08-30T21:45:45.806Z,3.77
2022-08-30T21:49:47.995Z,4.00
2022-08-30T21:53:50.203Z,3.83
2022-08-30T21:57:54.373Z,4.00
2022-08-30T22:01:57.435Z,3.80
2022-08-30T22:05:59.601Z,4.33
2022-08-30T22:10:01.689Z,3.97
2022-08-30T22:14:04.892Z,4.47
2022-08-30T22:18:07.130Z,3.63
2022-08-30T22:22:09.419Z,3.77
2022-08-30T22:26:13.669Z,4.30
2022-08-30T22:30:17.807Z,4.17
2022-08-30T22:34:19.986Z,3.53
2022-08-30T22:38:22.909Z,3.87
2022-08-30T22:42:25.526Z,3.70
2022-08-30T22:46:33.820Z,3.60
2022-08-30T22:50:38.529Z,3.73
2022-08-30T22:54:40.650Z,4.17
2022-08-30T22:58:44.100Z,3.60
2022-08-30T23:02:50.851Z,3.43
2022-08-30T23:06:53.225Z,4.33
2022-08-30T23:10:58.238Z,3.80
2022-08-30T23:15:00.148Z,3.47
2022-08-30T23:19:02.438Z,3.27
2022-08-30T23:23:04.324Z,2.60
2022-08-30T23:27:27.682Z,3.30
2022-08-30T23:31:48.454Z,4.03
2022-08-30T23:36:10.595Z,2.97
2022-08-30T23:40:32.100Z,2.80
2022-08-30T23:44:53.553Z,4.30
2022-08-30T23:49:14.628Z,3.27
2022-08-30T23:53:35.567Z,2.60
2022-08-30T23:57:56.146Z,2.63
